sensor_id;sensor_type;location;lat;lon;timestamp;P1;durP1;ratioP1;P2;durP2;ratioP2
21492;SDS011;10908;50.690;4.400;2023-03-14T06:03:21;7.05;;;2.60;;
21492;SDS011;10908;50.690;4.400;2023-03-14T06:05:49;9.30;;;3.92;;
21492;SDS011;10908;50.690;4.400;2023-03-14T06:08:15;8.15;;;3.58;;
21492;SDS011;10908;50.690;4.400;2023-03-14T06:10:41;7.82;;;3.67;;
21492;SDS011;10908;50.690;4.400;2023-03-14T06:13:06;9.25;;;4.10;;
21492;SDS011;10908;50.690;4.400;2023-03-14T06:15:32;7.63;;;3.60;;
21492;SDS011;10908;50.690;4.400;2023-03-14T06:17:58;7.53;;;4.03;;
21492;SDS011;10908;50.690;4.400;2023-03-14T06:20:23;7.47;;;3.33;;
21492;SDS011;10908;50.690;4.400;2023-03-14T06:22:49;7.72;;;3.00;;
21492;SDS011;10908;50.690;4.400;2023-03-14T06:25:15;7.50;;;2.40;;
21492;SDS011;10908;50.690;4.400;2023-03-14T06:27:41;6.15;;;2.20;;
21492;SDS011;10908;50.690;4.400;2023-03-14T06:30:07;6.00;;;2.30;;
21492;SDS011;10908;50.690;4.400;2023-03-14T06:32:33;5.47;;;2.08;;
21492;SDS011;10908;50.690;4.400;2023-03-14T06:34:59;3.45;;;1.65;;
21492;SDS011;10908;50.690;4.400;2023-03-14T06:37:26;5.78;;;1.98;;
21492;SDS011;10908;50.690;4.400;2023-03-14T06:39:53;5.47;;;1.60;;
21492;SDS011;10908;50.690;4.400;2023-03-14T06:42:19;5.57;;;1.77;;
21492;SDS011;10908;50.690;4.400;2023-03-14T06:44:45;4.60;;;1.65;;
21492;SDS011;10908;50.690;4.400;2023-03-14T06:47:11;3.97;;;1.77;;
21492;SDS011;10908;50.690;4.400;2023-03-14T06:49:37;3.92;;;1.25;;
21492;SDS011;10908;50.690;4.400;2023-03-14T06:52:03;3.65;;;1.27;;
21492;SDS011;10908;50.690;4.400;2023-03-14T06:54:28;3.85;;;1.35;;
21492;SDS011;10908;50.690;4.400;2023-03-14T06:56:54;4.30;;;1.23;;
21492;SDS011;10908;50.690;4.400;2023-03-14T06:59:20;3.28;;;0.88;;
21492;SDS011;10908;50.690;4.400;2023-03-14T07:01:45;2.92;;;0.90;;
21492;SDS011;10908;50.690;4.400;2023-03-14T07:04:13;4.10;;;0.70;;
21492;SDS011;10908;50.690;4.400;2023-03-14T07:06:39;2.60;;;0.90;;
21492;SDS011;10908;50.690;4.400;2023-03-14T07:09:09;5.65;;;1.00;;
21492;SDS011;10908;50.690;4.400;2023-03-14T07:11:38;3.05;;;0.98;;
21492;SDS011;10908;50.690;4.400;2023-03-14T07:14:03;2.70;;;1.00;;
21492;SDS011;10908;50.690;4.400;2023-03-14T07:16:29;3.00;;;0.75;;
21492;SDS011;10908;50.690;4.400;2023-03-14T07:18:57;2.92;;;0.70;;
21492;SDS011;10908;50.690;4.400;2023-03-14T07:21:24;1.88;;;0.65;;
21492;SDS011;10908;50.690;4.400;2023-03-14T07:23:49;3.17;;;0.80;;
21492;SDS011;10908;50.690;4.400;2023-03-14T07:26:15;3.67;;;0.75;;
21492;SDS011;10908;50.690;4.400;2023-03-14T07:28:41;3.50;;;0.90;;
21492;SDS011;10908;50.690;4.400;2023-03-14T07:31:06;3.17;;;1.00;;
21492;SDS011;10908;50.690;4.400;2023-03-14T07:33:32;5.57;;;1.13;;
21492;SDS011;10908;50.690;4.400;2023-03-14T07:35:58;3.35;;;1.20;;
21492;SDS011;10908;50.690;4.400;2023-03-14T07:38:23;5.32;;;1.35;;
21492;SDS011;10908;50.690;4.400;2023-03-14T07:40:49;6.00;;;1.70;;
21492;SDS011;10908;50.690;4.400;2023-03-14T07:43:15;4.93;;;1.50;;
21492;SDS011;10908;50.690;4.400;2023-03-14T07:45:41;3.60;;;1.05;;
21492;SDS011;10908;50.690;4.400;2023-03-14T07:48:10;3.38;;;1.10;;
21492;SDS011;10908;50.690;4.400;2023-03-14T07:50:35;4.70;;;1.30;;
21492;SDS011;10908;50.690;4.400;2023-03-14T07:53:01;5.43;;;1.30;;
21492;SDS011;10908;50.690;4.400;2023-03-14T07:55:27;4.45;;;1.40;;
21492;SDS011;10908;50.690;4.400;2023-03-14T07:57:52;4.07;;;1.23;;
21492;SDS011;10908;50.690;4.400;2023-03-14T08:00:18;7.60;;;1.85;;
21492;SDS011;10908;50.690;4.400;2023-03-14T08:02:44;5.65;;;2.03;;
21492;SDS011;10908;50.690;4.400;2023-03-14T08:05:10;5.10;;;2.05;;
21492;SDS011;10908;50.690;4.400;2023-03-14T08:07:35;6.88;;;2.20;;
21492;SDS011;10908;50.690;4.400;2023-03-14T08:10:01;4.88;;;1.95;;
21492;SDS011;10908;50.690;4.400;2023-03-14T08:12:27;6.15;;;1.88;;
21492;SDS011;10908;50.690;4.400;2023-03-14T08:14:53;6.22;;;2.25;;
21492;SDS011;10908;50.690;4.400;2023-03-14T08:17:18;4.32;;;1.88;;
21492;SDS011;10908;50.690;4.400;2023-03-14T08:19:44;8.88;;;3.20;;
21492;SDS011;10908;50.690;4.400;2023-03-14T08:22:10;10.55;;;2.90;;
21492;SDS011;10908;50.690;4.400;2023-03-14T08:24:35;11.20;;;3.22;;
21492;SDS011;10908;50.690;4.400;2023-03-14T08:27:01;13.98;;;3.15;;
21492;SDS011;10908;50.690;4.400;2023-03-14T08:29:26;11.30;;;3.40;;
21492;SDS011;10908;50.690;4.400;2023-03-14T08:31:52;10.35;;;2.90;;
21492;SDS011;10908;50.690;4.400;2023-03-14T08:34:19;9.98;;;2.80;;
21492;SDS011;10908;50.690;4.400;2023-03-14T08:36:45;8.38;;;2.83;;
21492;SDS011;10908;50.690;4.400;2023-03-14T08:39:11;11.32;;;3.13;;
21492;SDS011;10908;50.690;4.400;2023-03-14T08:41:37;8.80;;;2.80;;
21492;SDS011;10908;50.690;4.400;2023-03-14T08:44:05;11.57;;;3.00;;
21492;SDS011;10908;50.690;4.400;2023-03-14T08:46:32;13.38;;;3.38;;
21492;SDS011;10908;50.690;4.400;2023-03-14T08:48:58;10.40;;;2.90;;
21492;SDS011;10908;50.690;4.400;2023-03-14T08:51:24;14.02;;;3.08;;
21492;SDS011;10908;50.690;4.400;2023-03-14T08:53:50;13.57;;;2.95;;
21492;SDS011;10908;50.690;4.400;2023-03-14T08:56:15;15.13;;;2.90;;
21492;SDS011;10908;50.690;4.400;2023-03-14T08:58:41;10.27;;;2.42;;
21492;SDS011;10908;50.690;4.400;2023-03-14T09:01:08;12.65;;;2.60;;
21492;SDS011;10908;50.690;4.400;2023-03-14T09:03:35;16.10;;;2.67;;
21492;SDS011;10908;50.690;4.400;2023-03-14T09:06:01;9.55;;;2.30;;
21492;SDS011;10908;50.690;4.400;2023-03-14T09:08:31;12.18;;;2.53;;
21492;SDS011;10908;50.690;4.400;2023-03-14T09:10:57;12.32;;;2.03;;
21492;SDS011;10908;50.690;4.400;2023-03-14T09:13:23;9.05;;;1.77;;
21492;SDS011;10908;50.690;4.400;2023-03-14T09:15:52;7.97;;;1.80;;
21492;SDS011;10908;50.690;4.400;2023-03-14T09:18:18;10.07;;;1.98;;
21492;SDS011;10908;50.690;4.400;2023-03-14T09:20:44;11.60;;;1.80;;
21492;SDS011;10908;50.690;4.400;2023-03-14T09:23:10;9.27;;;1.65;;
21492;SDS011;10908;50.690;4.400;2023-03-14T09:25:35;10.10;;;1.67;;
21492;SDS011;10908;50.690;4.400;2023-03-14T09:28:01;6.72;;;1.80;;
21492;SDS011;10908;50.690;4.400;2023-03-14T09:30:27;9.05;;;1.77;;
21492;SDS011;10908;50.690;4.400;2023-03-14T09:32:53;5.85;;;1.50;;
21492;SDS011;10908;50.690;4.400;2023-03-14T09:35:18;8.63;;;2.35;;
21492;SDS011;10908;50.690;4.400;2023-03-14T09:37:44;8.60;;;1.98;;
21492;SDS011;10908;50.690;4.400;2023-03-14T09:40:14;11.55;;;2.47;;
21492;SDS011;10908;50.690;4.400;2023-03-14T09:42:41;7.43;;;2.53;;
21492;SDS011;10908;50.690;4.400;2023-03-14T09:45:11;13.88;;;2.92;;
21492;SDS011;10908;50.690;4.400;2023-03-14T09:47:44;11.70;;;2.67;;
21492;SDS011;10908;50.690;4.400;2023-03-14T09:50:13;10.82;;;2.90;;
21492;SDS011;10908;50.690;4.400;2023-03-14T09:52:42;8.82;;;2.83;;
21492;SDS011;10908;50.690;4.400;2023-03-14T09:55:36;11.00;;;3.17;;
21492;SDS011;10908;50.690;4.400;2023-03-14T09:58:03;7.32;;;3.13;;
21492;SDS011;10908;50.690;4.400;2023-03-14T10:00:35;11.27;;;3.03;;
21492;SDS011;10908;50.690;4.400;2023-03-14T10:03:22;8.13;;;2.70;;
21492;SDS011;10908;50.690;4.400;2023-03-14T10:05:49;9.07;;;2.90;;
21492;SDS011;10908;50.690;4.400;2023-03-14T10:08:15;8.32;;;2.67;;
21492;SDS011;10908;50.690;4.400;2023-03-14T10:10:41;17.88;;;3.63;;
21492;SDS011;10908;50.690;4.400;2023-03-14T10:15:47;11.10;;;2.78;;
21492;SDS011;10908;50.690;4.400;2023-03-14T10:18:21;11.10;;;2.72;;
21492;SDS011;10908;50.690;4.400;2023-03-14T10:20:49;11.95;;;2.70;;
21492;SDS011;10908;50.690;4.400;2023-03-14T10:23:27;8.80;;;2.33;;
21492;SDS011;10908;50.690;4.400;2023-03-14T10:26:12;10.00;;;2.60;;
21492;SDS011;10908;50.690;4.400;2023-03-14T10:28:42;9.40;;;2.03;;
21492;SDS011;10908;50.690;4.400;2023-03-14T10:31:12;9.60;;;2.10;;
21492;SDS011;10908;50.690;4.400;2023-03-14T10:33:39;11.85;;;2.20;;
21492;SDS011;10908;50.690;4.400;2023-03-14T10:38:33;10.68;;;2.55;;
21492;SDS011;10908;50.690;4.400;2023-03-14T10:41:00;12.18;;;2.50;;
21492;SDS011;10908;50.690;4.400;2023-03-14T10:46:16;7.65;;;3.05;;
21492;SDS011;10908;50.690;4.400;2023-03-14T10:48:44;11.95;;;2.90;;
21492;SDS011;10908;50.690;4.400;2023-03-14T10:56:28;7.32;;;2.25;;
21492;SDS011;10908;50.690;4.400;2023-03-14T10:58:59;9.43;;;2.30;;
21492;SDS011;10908;50.690;4.400;2023-03-14T11:06:56;13.15;;;1.85;;
21492;SDS011;10908;50.690;4.400;2023-03-14T11:12:14;8.98;;;2.10;;
21492;SDS011;10908;50.690;4.400;2023-03-14T11:15:04;8.52;;;2.20;;
21492;SDS011;10908;50.690;4.400;2023-03-14T11:17:50;12.00;;;2.33;;
21492;SDS011;10908;50.690;4.400;2023-03-14T11:26:48;7.80;;;2.90;;
21492;SDS011;10908;50.690;4.400;2023-03-14T11:32:19;9.18;;;3.78;;
21492;SDS011;10908;50.690;4.400;2023-03-14T11:34:52;10.82;;;3.53;;
21492;SDS011;10908;50.690;4.400;2023-03-14T11:37:25;11.85;;;4.47;;
21492;SDS011;10908;50.690;4.400;2023-03-14T11:40:10;10.77;;;4.53;;
21492;SDS011;10908;50.690;4.400;2023-03-14T11:42:50;11.43;;;4.30;;
21492;SDS011;10908;50.690;4.400;2023-03-14T11:45:27;10.20;;;4.30;;
21492;SDS011;10908;50.690;4.400;2023-03-14T11:48:42;11.60;;;4.38;;
21492;SDS011;10908;50.690;4.400;2023-03-14T11:50:47;9.05;;;3.97;;
21492;SDS011;10908;50.690;4.400;2023-03-14T11:56:14;10.48;;;4.10;;
21492;SDS011;10908;50.690;4.400;2023-03-14T11:59:01;12.18;;;4.35;;
21492;SDS011;10908;50.690;4.400;2023-03-14T12:04:27;7.55;;;4.43;;
21492;SDS011;10908;50.690;4.400;2023-03-14T12:10:13;8.27;;;3.53;;
21492;SDS011;10908;50.690;4.400;2023-03-14T12:12:38;8.15;;;3.45;;
21492;SDS011;10908;50.690;4.400;2023-03-14T12:15:04;7.82;;;3.83;;
21492;SDS011;10908;50.690;4.400;2023-03-14T12:17:42;9.45;;;4.18;;
21492;SDS011;10908;50.690;4.400;2023-03-14T12:25:27;6.75;;;2.90;;
21492;SDS011;10908;50.690;4.400;2023-03-14T12:35:45;6.95;;;3.20;;
21492;SDS011;10908;50.690;4.400;2023-03-14T12:38:17;5.40;;;2.45;;
21492;SDS011;10908;50.690;4.400;2023-03-14T12:40:49;5.20;;;2.55;;
21492;SDS011;10908;50.690;4.400;2023-03-14T12:43:36;5.95;;;2.47;;
21492;SDS011;10908;50.690;4.400;2023-03-14T12:48:34;4.53;;;2.25;;
21492;SDS011;10908;50.690;4.400;2023-03-14T12:51:04;4.65;;;1.85;;
21492;SDS011;10908;50.690;4.400;2023-03-14T13:05:01;5.47;;;1.85;;
21492;SDS011;10908;50.690;4.400;2023-03-14T13:15:39;4.10;;;1.70;;
21492;SDS011;10908;50.690;4.400;2023-03-14T13:20:55;4.72;;;1.63;;
21492;SDS011;10908;50.690;4.400;2023-03-14T13:23:40;3.50;;;1.60;;
21492;SDS011;10908;50.690;4.400;2023-03-14T13:26:18;4.50;;;1.65;;
21492;SDS011;10908;50.690;4.400;2023-03-14T13:28:44;3.53;;;1.38;;
21492;SDS011;10908;50.690;4.400;2023-03-14T13:31:12;4.50;;;1.70;;
21492;SDS011;10908;50.690;4.400;2023-03-14T13:33:46;4.13;;;1.58;;
21492;SDS011;10908;50.690;4.400;2023-03-14T13:36:12;3.50;;;1.60;;
21492;SDS011;10908;50.690;4.400;2023-03-14T13:38:37;4.53;;;1.50;;
21492;SDS011;10908;50.690;4.400;2023-03-14T13:41:04;5.38;;;1.83;;
21492;SDS011;10908;50.690;4.400;2023-03-14T13:46:10;5.32;;;1.63;;
21492;SDS011;10908;50.690;4.400;2023-03-14T13:48:42;3.83;;;1.52;;
21492;SDS011;10908;50.690;4.400;2023-03-14T13:51:11;4.28;;;1.65;;
21492;SDS011;10908;50.690;4.400;2023-03-14T13:53:57;3.67;;;1.52;;
21492;SDS011;10908;50.690;4.400;2023-03-14T13:56:25;3.83;;;1.30;;
21492;SDS011;10908;50.690;4.400;2023-03-14T13:58:55;4.55;;;1.35;;
21492;SDS011;10908;50.690;4.400;2023-03-14T14:01:22;5.03;;;1.50;;
21492;SDS011;10908;50.690;4.400;2023-03-14T14:03:53;6.32;;;1.50;;
21492;SDS011;10908;50.690;4.400;2023-03-14T14:06:39;7.43;;;1.30;;
21492;SDS011;10908;50.690;4.400;2023-03-14T14:09:12;4.25;;;1.40;;
21492;SDS011;10908;50.690;4.400;2023-03-14T14:11:47;7.43;;;1.77;;
21492;SDS011;10908;50.690;4.400;2023-03-14T14:14:28;6.13;;;1.40;;
21492;SDS011;10908;50.690;4.400;2023-03-14T14:16:58;9.00;;;2.38;;
21492;SDS011;10908;50.690;4.400;2023-03-14T14:19:27;8.55;;;2.33;;
21492;SDS011;10908;50.690;4.400;2023-03-14T14:21:55;8.18;;;1.50;;
21492;SDS011;10908;50.690;4.400;2023-03-14T14:24:22;9.18;;;1.38;;
21492;SDS011;10908;50.690;4.400;2023-03-14T14:26:51;7.72;;;1.52;;
21492;SDS011;10908;50.690;4.400;2023-03-14T14:29:23;9.57;;;1.23;;
21492;SDS011;10908;50.690;4.400;2023-03-14T14:32:00;9.18;;;1.55;;
21492;SDS011;10908;50.690;4.400;2023-03-14T14:34:26;11.20;;;1.40;;
21492;SDS011;10908;50.690;4.400;2023-03-14T14:36:52;9.95;;;1.27;;
21492;SDS011;10908;50.690;4.400;2023-03-14T14:41:45;7.32;;;1.50;;
21492;SDS011;10908;50.690;4.400;2023-03-14T14:44:13;7.80;;;1.40;;
21492;SDS011;10908;50.690;4.400;2023-03-14T14:46:54;5.00;;;1.40;;
21492;SDS011;10908;50.690;4.400;2023-03-14T14:49:21;8.10;;;1.30;;
21492;SDS011;10908;50.690;4.400;2023-03-14T14:51:59;8.57;;;1.35;;
21492;SDS011;10908;50.690;4.400;2023-03-14T14:54:37;10.52;;;1.55;;
21492;SDS011;10908;50.690;4.400;2023-03-14T14:57:12;13.30;;;1.88;;
21492;SDS011;10908;50.690;4.400;2023-03-14T14:59:43;9.55;;;2.08;;
21492;SDS011;10908;50.690;4.400;2023-03-14T15:02:23;10.80;;;2.20;;
21492;SDS011;10908;50.690;4.400;2023-03-14T15:05:15;13.40;;;1.88;;
21492;SDS011;10908;50.690;4.400;2023-03-14T15:07:43;7.75;;;1.13;;
21492;SDS011;10908;50.690;4.400;2023-03-14T15:10:13;13.48;;;1.48;;
21492;SDS011;10908;50.690;4.400;2023-03-14T15:12:49;16.45;;;1.40;;
21492;SDS011;10908;50.690;4.400;2023-03-14T15:15:16;9.88;;;1.23;;
21492;SDS011;10908;50.690;4.400;2023-03-14T15:17:42;5.95;;;0.93;;
21492;SDS011;10908;50.690;4.400;2023-03-14T15:20:12;6.97;;;0.90;;
21492;SDS011;10908;50.690;4.400;2023-03-14T15:22:40;7.18;;;1.02;;
21492;SDS011;10908;50.690;4.400;2023-03-14T15:25:06;5.57;;;1.00;;
21492;SDS011;10908;50.690;4.400;2023-03-14T15:27:33;5.05;;;0.65;;
21492;SDS011;10908;50.690;4.400;2023-03-14T15:29:59;4.53;;;0.60;;
21492;SDS011;10908;50.690;4.400;2023-03-14T15:32:25;6.00;;;1.17;;
21492;SDS011;10908;50.690;4.400;2023-03-14T15:34:55;7.18;;;2.50;;
21492;SDS011;10908;50.690;4.400;2023-03-14T15:37:21;8.05;;;1.90;;
21492;SDS011;10908;50.690;4.400;2023-03-14T15:39:47;6.72;;;1.88;;
21492;SDS011;10908;50.690;4.400;2023-03-14T15:45:05;9.77;;;1.10;;
21492;SDS011;10908;50.690;4.400;2023-03-14T15:47:31;4.68;;;0.85;;
21492;SDS011;10908;50.690;4.400;2023-03-14T15:49:57;5.63;;;1.30;;
21492;SDS011;10908;50.690;4.400;2023-03-14T15:52:23;5.70;;;0.88;;
21492;SDS011;10908;50.690;4.400;2023-03-14T15:54:49;6.18;;;1.33;;
21492;SDS011;10908;50.690;4.400;2023-03-14T15:57:14;4.03;;;0.90;;
21492;SDS011;10908;50.690;4.400;2023-03-14T15:59:40;5.47;;;1.30;;
21492;SDS011;10908;50.690;4.400;2023-03-14T16:02:06;6.63;;;1.65;;
21492;SDS011;10908;50.690;4.400;2023-03-14T16:04:32;12.70;;;5.13;;
21492;SDS011;10908;50.690;4.400;2023-03-14T16:06:57;11.07;;;4.60;;
21492;SDS011;10908;50.690;4.400;2023-03-14T16:09:23;12.45;;;4.20;;
21492;SDS011;10908;50.690;4.400;2023-03-14T16:11:49;11.07;;;4.50;;
21492;SDS011;10908;50.690;4.400;2023-03-14T16:14:15;9.82;;;3.75;;
21492;SDS011;10908;50.690;4.400;2023-03-14T16:16:40;7.25;;;3.20;;
21492;SDS011;10908;50.690;4.400;2023-03-14T16:19:06;7.78;;;2.83;;
21492;SDS011;10908;50.690;4.400;2023-03-14T16:21:32;8.63;;;3.25;;
21492;SDS011;10908;50.690;4.400;2023-03-14T16:23:58;13.65;;;4.20;;
21492;SDS011;10908;50.690;4.400;2023-03-14T16:26:24;7.15;;;2.67;;
21492;SDS011;10908;50.690;4.400;2023-03-14T16:28:50;11.88;;;2.60;;
21492;SDS011;10908;50.690;4.400;2023-03-14T16:31:17;8.63;;;2.63;;
21492;SDS011;10908;50.690;4.400;2023-03-14T16:33:45;6.78;;;2.15;;
21492;SDS011;10908;50.690;4.400;2023-03-14T16:36:11;6.85;;;2.67;;
21492;SDS011;10908;50.690;4.400;2023-03-14T16:38:39;10.25;;;2.70;;
21492;SDS011;10908;50.690;4.400;2023-03-14T16:41:08;11.35;;;4.60;;
21492;SDS011;10908;50.690;4.400;2023-03-14T16:43:37;11.27;;;3.85;;
21492;SDS011;10908;50.690;4.400;2023-03-14T16:46:04;11.00;;;3.85;;
21492;SDS011;10908;50.690;4.400;2023-03-14T16:48:31;7.97;;;2.83;;
21492;SDS011;10908;50.690;4.400;2023-03-14T16:50:57;7.38;;;2.88;;
21492;SDS011;10908;50.690;4.400;2023-03-14T16:53:23;7.13;;;2.38;;
21492;SDS011;10908;50.690;4.400;2023-03-14T16:55:52;12.82;;;4.38;;
21492;SDS011;10908;50.690;4.400;2023-03-14T16:58:18;11.73;;;6.35;;
21492;SDS011;10908;50.690;4.400;2023-03-14T17:00:45;15.13;;;6.38;;
21492;SDS011;10908;50.690;4.400;2023-03-14T17:03:11;10.02;;;3.20;;
21492;SDS011;10908;50.690;4.400;2023-03-14T17:05:37;11.43;;;3.08;;
21492;SDS011;10908;50.690;4.400;2023-03-14T17:08:09;10.70;;;3.53;;
21492;SDS011;10908;50.690;4.400;2023-03-14T17:10:35;7.60;;;2.35;;
21492;SDS011;10908;50.690;4.400;2023-03-14T17:13:00;8.20;;;2.90;;
21492;SDS011;10908;50.690;4.400;2023-03-14T17:15:26;8.23;;;3.08;;
21492;SDS011;10908;50.690;4.400;2023-03-14T17:17:52;8.18;;;2.30;;
21492;SDS011;10908;50.690;4.400;2023-03-14T17:20:17;11.35;;;3.65;;
21492;SDS011;10908;50.690;4.400;2023-03-14T17:22:43;17.42;;;7.57;;
21492;SDS011;10908;50.690;4.400;2023-03-14T17:25:09;22.20;;;11.80;;
21492;SDS011;10908;50.690;4.400;2023-03-14T17:27:34;18.75;;;8.98;;
21492;SDS011;10908;50.690;4.400;2023-03-14T17:30:03;21.33;;;8.10;;
21492;SDS011;10908;50.690;4.400;2023-03-14T17:32:29;12.32;;;4.43;;
21492;SDS011;10908;50.690;4.400;2023-03-14T17:34:55;12.57;;;3.30;;
21492;SDS011;10908;50.690;4.400;2023-03-14T17:37:20;9.80;;;3.05;;
21492;SDS011;10908;50.690;4.400;2023-03-14T17:39:46;12.77;;;3.55;;
21492;SDS011;10908;50.690;4.400;2023-03-14T17:42:12;12.25;;;2.83;;
21492;SDS011;10908;50.690;4.400;2023-03-14T17:44:38;10.63;;;3.00;;
21492;SDS011;10908;50.690;4.400;2023-03-14T17:47:03;9.68;;;2.85;;
21492;SDS011;10908;50.690;4.400;2023-03-14T17:49:29;11.20;;;3.10;;
21492;SDS011;10908;50.690;4.400;2023-03-14T17:51:55;10.57;;;2.95;;
21492;SDS011;10908;50.690;4.400;2023-03-14T17:54:20;15.07;;;3.03;;
21492;SDS011;10908;50.690;4.400;2023-03-14T17:56:46;16.40;;;3.20;;
21492;SDS011;10908;50.690;4.400;2023-03-14T17:59:13;12.38;;;2.75;;
21492;SDS011;10908;50.690;4.400;2023-03-14T18:04:10;10.90;;;3.17;;
21492;SDS011;10908;50.690;4.400;2023-03-14T18:06:37;16.17;;;3.20;;
21492;SDS011;10908;50.690;4.400;2023-03-14T18:09:03;9.88;;;3.20;;
21492;SDS011;10908;50.690;4.400;2023-03-14T18:11:29;9.30;;;2.85;;
21492;SDS011;10908;50.690;4.400;2023-03-14T18:13:55;11.32;;;3.10;;
21492;SDS011;10908;50.690;4.400;2023-03-14T18:16:21;10.55;;;3.50;;
21492;SDS011;10908;50.690;4.400;2023-03-14T18:18:47;10.70;;;3.22;;
21492;SDS011;10908;50.690;4.400;2023-03-14T18:21:14;13.82;;;3.45;;
21492;SDS011;10908;50.690;4.400;2023-03-14T18:23:41;13.32;;;3.25;;
21492;SDS011;10908;50.690;4.400;2023-03-14T18:26:07;12.65;;;3.20;;
21492;SDS011;10908;50.690;4.400;2023-03-14T18:28:32;9.82;;;3.03;;
21492;SDS011;10908;50.690;4.400;2023-03-14T18:31:02;9.73;;;3.38;;
21492;SDS011;10908;50.690;4.400;2023-03-14T18:33:35;18.55;;;4.13;;
21492;SDS011;10908;50.690;4.400;2023-03-14T18:36:07;15.63;;;3.83;;
21492;SDS011;10908;50.690;4.400;2023-03-14T18:38:34;15.30;;;3.92;;
21492;SDS011;10908;50.690;4.400;2023-03-14T18:41:06;11.98;;;3.38;;
21492;SDS011;10908;50.690;4.400;2023-03-14T18:43:32;12.82;;;4.00;;
21492;SDS011;10908;50.690;4.400;2023-03-14T18:45:58;14.30;;;5.10;;
21492;SDS011;10908;50.690;4.400;2023-03-14T18:48:24;14.55;;;4.60;;
21492;SDS011;10908;50.690;4.400;2023-03-14T18:50:50;14.43;;;5.05;;
21492;SDS011;10908;50.690;4.400;2023-03-14T18:53:16;14.45;;;5.53;;
21492;SDS011;10908;50.690;4.400;2023-03-14T18:55:42;21.50;;;7.30;;
21492;SDS011;10908;50.690;4.400;2023-03-14T18:58:07;10.25;;;4.47;;
21492;SDS011;10908;50.690;4.400;2023-03-14T19:00:33;14.23;;;5.68;;
21492;SDS011;10908;50.690;4.400;2023-03-14T19:03:02;10.48;;;4.63;;
21492;SDS011;10908;50.690;4.400;2023-03-14T19:05:28;13.85;;;5.25;;
21492;SDS011;10908;50.690;4.400;2023-03-14T19:07:56;11.57;;;4.78;;
21492;SDS011;10908;50.690;4.400;2023-03-14T19:10:22;11.85;;;5.45;;
21492;SDS011;10908;50.690;4.400;2023-03-14T19:12:50;14.73;;;5.85;;
21492;SDS011;10908;50.690;4.400;2023-03-14T19:15:16;12.00;;;4.25;;
21492;SDS011;10908;50.690;4.400;2023-03-14T19:17:42;10.00;;;4.10;;
21492;SDS011;10908;50.690;4.400;2023-03-14T19:22:56;16.20;;;5.32;;
21492;SDS011;10908;50.690;4.400;2023-03-14T19:25:33;16.33;;;5.22;;
21492;SDS011;10908;50.690;4.400;2023-03-14T19:28:17;18.40;;;4.95;;
21492;SDS011;10908;50.690;4.400;2023-03-14T19:31:06;14.32;;;4.53;;
21492;SDS011;10908;50.690;4.400;2023-03-14T19:33:32;17.23;;;6.78;;
21492;SDS011;10908;50.690;4.400;2023-03-14T19:35:58;16.20;;;5.57;;
21492;SDS011;10908;50.690;4.400;2023-03-14T19:38:23;12.85;;;4.78;;
21492;SDS011;10908;50.690;4.400;2023-03-14T19:40:54;15.30;;;5.35;;
21492;SDS011;10908;50.690;4.400;2023-03-14T19:43:22;13.32;;;4.40;;
21492;SDS011;10908;50.690;4.400;2023-03-14T19:45:47;14.60;;;5.03;;
21492;SDS011;10908;50.690;4.400;2023-03-14T19:48:14;12.20;;;4.82;;
21492;SDS011;10908;50.690;4.400;2023-03-14T19:50:40;12.50;;;4.63;;
21492;SDS011;10908;50.690;4.400;2023-03-14T19:53:24;12.95;;;4.38;;
21492;SDS011;10908;50.690;4.400;2023-03-14T19:55:50;14.60;;;5.13;;
21492;SDS011;10908;50.690;4.400;2023-03-14T19:58:16;14.48;;;5.80;;
21492;SDS011;10908;50.690;4.400;2023-03-14T20:00:41;16.83;;;5.05;;
21492;SDS011;10908;50.690;4.400;2023-03-14T20:03:10;20.13;;;6.90;;
21492;SDS011;10908;50.690;4.400;2023-03-14T20:05:37;14.77;;;5.53;;
21492;SDS011;10908;50.690;4.400;2023-03-14T20:08:04;13.25;;;5.00;;
21492;SDS011;10908;50.690;4.400;2023-03-14T20:10:29;14.93;;;5.22;;
21492;SDS011;10908;50.690;4.400;2023-03-14T20:12:55;18.23;;;5.57;;
21492;SDS011;10908;50.690;4.400;2023-03-14T20:15:22;15.25;;;5.40;;
21492;SDS011;10908;50.690;4.400;2023-03-14T20:17:49;16.20;;;5.13;;
21492;SDS011;10908;50.690;4.400;2023-03-14T20:20:15;16.02;;;5.57;;
21492;SDS011;10908;50.690;4.400;2023-03-14T20:22:42;17.05;;;5.32;;
21492;SDS011;10908;50.690;4.400;2023-03-14T20:25:16;16.25;;;5.28;;
21492;SDS011;10908;50.690;4.400;2023-03-14T20:28:08;17.92;;;5.70;;
21492;SDS011;10908;50.690;4.400;2023-03-14T20:30:33;16.80;;;5.43;;
21492;SDS011;10908;50.690;4.400;2023-03-14T20:32:59;21.17;;;5.88;;
21492;SDS011;10908;50.690;4.400;2023-03-14T20:35:28;16.17;;;5.20;;
21492;SDS011;10908;50.690;4.400;2023-03-14T20:37:54;18.48;;;6.10;;
21492;SDS011;10908;50.690;4.400;2023-03-14T20:40:28;20.77;;;8.45;;
21492;SDS011;10908;50.690;4.400;2023-03-14T20:43:01;15.40;;;5.97;;
21492;SDS011;10908;50.690;4.400;2023-03-14T20:45:50;15.82;;;6.05;;
21492;SDS011;10908;50.690;4.400;2023-03-14T20:48:31;13.43;;;5.35;;
21492;SDS011;10908;50.690;4.400;2023-03-14T20:50:57;15.10;;;5.22;;
21492;SDS011;10908;50.690;4.400;2023-03-14T20:53:40;12.52;;;5.05;;
21492;SDS011;10908;50.690;4.400;2023-03-14T20:56:06;16.02;;;4.57;;
21492;SDS011;10908;50.690;4.400;2023-03-14T20:58:32;14.25;;;4.70;;
21492;SDS011;10908;50.690;4.400;2023-03-14T21:00:59;11.82;;;4.88;;
21492;SDS011;10908;50.690;4.400;2023-03-14T21:03:26;9.68;;;3.28;;
21492;SDS011;10908;50.690;4.400;2023-03-14T21:05:52;8.48;;;2.90;;
21492;SDS011;10908;50.690;4.400;2023-03-14T21:08:19;8.13;;;2.55;;
21492;SDS011;10908;50.690;4.400;2023-03-14T21:10:49;8.15;;;2.67;;
21492;SDS011;10908;50.690;4.400;2023-03-14T21:13:16;5.82;;;2.90;;
21492;SDS011;10908;50.690;4.400;2023-03-14T21:15:42;7.38;;;3.00;;
21492;SDS011;10908;50.690;4.400;2023-03-14T21:18:10;6.25;;;1.83;;
21492;SDS011;10908;50.690;4.400;2023-03-14T21:20:37;5.85;;;2.17;;
21492;SDS011;10908;50.690;4.400;2023-03-14T21:23:04;5.75;;;1.67;;
21492;SDS011;10908;50.690;4.400;2023-03-14T21:25:30;7.45;;;1.65;;
21492;SDS011;10908;50.690;4.400;2023-03-14T21:27:56;8.02;;;1.95;;
21492;SDS011;10908;50.690;4.400;2023-03-14T21:30:22;6.32;;;2.20;;
21492;SDS011;10908;50.690;4.400;2023-03-14T21:32:48;7.78;;;2.42;;
21492;SDS011;10908;50.690;4.400;2023-03-14T21:35:14;6.63;;;2.90;;
21492;SDS011;10908;50.690;4.400;2023-03-14T21:37:40;10.77;;;3.17;;
21492;SDS011;10908;50.690;4.400;2023-03-14T21:40:05;9.13;;;3.00;;
21492;SDS011;10908;50.690;4.400;2023-03-14T21:42:35;10.40;;;3.35;;
21492;SDS011;10908;50.690;4.400;2023-03-14T21:45:00;13.18;;;4.30;;
21492;SDS011;10908;50.690;4.400;2023-03-14T21:47:26;8.57;;;3.97;;
21492;SDS011;10908;50.690;4.400;2023-03-14T21:49:52;12.82;;;3.92;;
21492;SDS011;10908;50.690;4.400;2023-03-14T21:52:18;10.60;;;4.60;;
21492;SDS011;10908;50.690;4.400;2023-03-14T21:54:45;15.85;;;5.03;;
21492;SDS011;10908;50.690;4.400;2023-03-14T21:57:12;15.43;;;4.57;;
21492;SDS011;10908;50.690;4.400;2023-03-14T21:59:39;13.20;;;4.82;;
21492;SDS011;10908;50.690;4.400;2023-03-14T22:02:06;18.35;;;5.32;;
21492;SDS011;10908;50.690;4.400;2023-03-14T22:04:36;16.63;;;4.88;;
21492;SDS011;10908;50.690;4.400;2023-03-14T22:07:02;12.50;;;5.55;;
21492;SDS011;10908;50.690;4.400;2023-03-14T22:09:30;17.08;;;5.68;;
21492;SDS011;10908;50.690;4.400;2023-03-14T22:11:56;14.00;;;5.20;;
21492;SDS011;10908;50.690;4.400;2023-03-14T22:14:22;16.75;;;6.22;;
21492;SDS011;10908;50.690;4.400;2023-03-14T22:16:49;15.00;;;5.05;;
21492;SDS011;10908;50.690;4.400;2023-03-14T22:19:16;18.13;;;5.20;;
21492;SDS011;10908;50.690;4.400;2023-03-14T22:21:42;13.60;;;5.10;;